• Join FlightAware (Why Join?)
  • Login
  • US Flag 
04:56AM EDT


 

Airport Tracker/Info


-or-


 

Live Flight TrackerFlight Track Log ✈ RPA3868 ✈ 11-May-2013 ✈ KDEN - KDRO

Flight Track Log - Related Links

Times and Time Zones

All times are in EDT time to prevent confusion due to time zone crossing. See the RPA3868 flight status page for this flight to view local times or setup timezone preferences in your user account.

Time Position Orientation Groundspeed Altitude Reporting Facility
EDT Latitude Longitude Course Direction KTS MPH feet Rate Location/Type
12:13PM 39.8069 -104.6678 204° Southwest 176 203 7,000  Level Denver Center
12:14PM 39.7481 -104.6869 194° South 197 227 9,600 2,100 Climbing Denver Center
12:15PM 39.6906 -104.7017 191° South 208 239 11,400 1,740 Climbing Denver Center
12:16PM 39.6278 -104.7431 207° Southwest 234 269 13,300 1,740 Climbing Denver Center
12:17PM 39.5678 -104.7842 208° Southwest 243 280 15,000 1,560 Climbing Denver Center
12:18PM 39.5044 -104.8256 207° Southwest 253 291 16,600 1,260 Climbing Denver Center
12:19PM 39.3571 -104.9222 204° Southwest  Level FlightAware Approximate
12:19PM 39.4353 -104.8725 208° Southwest 262 302 17,700  Level Denver Center
12:20PM 39.3708 -104.9139 206° Southwest 260 299 18,800 1,200 Climbing Denver Center
12:21PM 39.3022 -104.9583 207° Southwest 257 296 20,200 1,200 Climbing Denver Center
12:23PM 39.2361 -105.0000 206° Southwest 264 304 21,400 1,020 Climbing Denver Center
12:24PM 39.1708 -105.0456 208° Southwest 271 312 22,400 960 Climbing Denver Center
12:25PM 39.0939 -105.0922 205° Southwest 276 318 23,400 720 Climbing Denver Center
12:26PM 39.0242 -105.1306 203° Southwest 282 325 24,000 240 Climbing Denver Center
12:27PM 38.9389 -105.1814 205° Southwest 302 348 24,000  Level Denver Center
12:28PM 38.8681 -105.2219 204° Southwest 293 337 24,000  Level Denver Center
12:29PM 38.7944 -105.2636 204° Southwest 298 343 24,000  Level Denver Center
12:30PM 38.7089 -105.3142 205° Southwest 301 346 24,000  Level Denver Center
12:31PM 38.6339 -105.3586 205° Southwest 305 351 24,000  Level Denver Center
12:32PM 38.5444 -105.4086 204° Southwest 311 358 24,000  Level Denver Center
12:33PM 38.4642 -105.4342 194° South 313 360 24,000  Level Denver Center
12:34PM 38.3694 -105.4656 195° South 313 360 24,000  Level Denver Center
12:35PM 38.2906 -105.4939 196° South 310 357 24,000  Level Denver Center
12:36PM 38.1981 -105.5267 196° South 308 354 24,000  Level Denver Center
12:37PM 38.1211 -105.5525 195° South 303 349 24,000  Level Denver Center
12:38PM 38.0300 -105.5836 195° South 303 349 24,000  Level Denver Center
12:39PM 37.9533 -105.6108 196° South 301 346 24,000  Level Denver Center
12:40PM 37.8631 -105.6408 195° South 299 344 24,000  Level Denver Center
12:41PM 37.7861 -105.6672 195° South 299 344 24,000  Level Denver Center
12:42PM 37.6964 -105.6975 195° South 299 344 24,000  Level Denver Center
12:43PM 37.6194 -105.7239 195° South 299 344 24,000  Level Denver Center
12:44PM 37.5319 -105.7544 195° South 295 339 24,000  Level Denver Center
12:45PM 37.4542 -105.7794 194° South 298 343 24,000  Level Denver Center
12:46PM 37.3669 -105.8114 196° South 295 339 24,000  Level Denver Center
12:47PM 37.3408 -105.8997 250° West 285 328 24,000  Level Denver Center
12:48PM 37.3333 -105.9964 264° West 288 331 24,000  Level Denver Center
12:49PM 37.3217 -106.1050 262° West 283 326 24,000  Level Denver Center
12:50PM 37.3117 -106.2089 263° West 288 331 24,000  Level Denver Center
12:51PM 37.3022 -106.3033 263° West 286 329 24,000  Level Denver Center
12:52PM 37.2917 -106.4144 263° West 287 330 24,000  Level Denver Center
12:54PM 37.2825 -106.5094 263° West 287 330 24,000 -480 Level Denver Center
12:55PM 37.2619 -106.6222 257° West 298 343 23,100 -900 Descending Denver Center
12:56PM 37.2339 -106.7153 249° West 299 344 22,200 -1,020 Descending Denver Center
12:57PM 37.2039 -106.8125 249° West 277 319 21,100 -1,020 Descending Denver Center
12:58PM 37.1797 -106.8942 250° West 266 306 20,200 -1,020 Descending Denver Center
12:59PM 37.1508 -106.9961 250° West 275 316 19,000 -1,140 Descending Denver Center
01:00PM 37.1264 -107.0797 250° West 271 312 17,900 -960 Descending Denver Center
01:01PM 37.0978 -107.1753 249° West 265 305 17,100 -960 Descending Denver Center
01:02PM 37.0739 -107.2600 251° West 267 307 16,000 -1,800 Descending Denver Center
01:03PM 37.0428 -107.3606 249° West 273 314 13,400 -1,740 Descending Denver Center
01:04PM 37.0169 -107.4486 250° West 279 321 12,500 -720 Descending Denver Center
01:05PM 36.9967 -107.5267 252° West 262 302 12,000 -300 Descending Denver Center
01:06PM 36.9536 -107.6042 235° Southwest 249 287 11,900  Descending Denver Center
01:07PM 36.9233 -107.6706 240° Southwest 237 273 12,000  Climbing Denver Center
01:08PM 36.9183 -107.7644 266° West 236 272 12,000 -180 Level Denver Center
01:09PM 36.9303 -107.8419 281° West 237 273 11,700 -480 Descending Denver Center
01:10PM 36.9683 -107.9022 308° West 219 252 11,100 -780 Descending Denver Center
01:11PM 37.0161 -107.8847 16° North 201 231 10,200 -1,140 Descending Denver Center
01:12PM 37.0642 -107.8353 39° Northeast 199 229 8,800 -1,260 Descending Denver Center
01:13PM 37.1000 -107.8011 37° Northeast 181 208 7,700 -1,020 Descending Denver Center
01:14PM 37.1322 -107.7708 37° Northeast 161 185 6,800 -900 Descending Denver Center